Toyo Maru — JI3710 — position and weather

sailwx.info

Track history (hours):
 
Tides and Currents Weather Stations Pressure Air Temp Water Temp Dewpoint Dewpoint Depression Visibility Wind Speed Wind Dir Waves Ship Positions

Toyo Maru

Last reported at 2015-Jul-03 17:23 UTC. Time now 2015-Jul-04 11:44 UTC.
Position N 34°04' E 134°48'.

Length 125 m; draft 6 m.

Type: Cargo ship. MMSI: 431401953.

Date/timePositionNaut miles runAvg speedWind from/ knotsBaromVisibWave heightAir tempDewpointWater temp
2015-Jul-03 17:23N 34°04' E 134°48'  
2015-Jun-30 11:20N 34°58' E 139°30'1417.6
2015-Jun-30 10:33N 35°07' E 139°42'1312.9
2015-Jun-30 09:33N 35°19' E 139°43'1515.2
2015-Jun-30 08:34N 35°31' E 139°55'1010.0
2015-Jun-30 07:31N 35°36' E 140°06'0 0.0
2015-Jun-30 06:31N 35°36' E 140°06'0 0.0
2015-Jun-30 05:31N 35°36' E 140°06'0 0.0
2015-Jun-30 04:33N 35°36' E 140°06'1 1.2
2015-Jun-30 03:32N 35°37' E 140°05'0 0.0
2015-Jun-30 02:20N 35°37' E 140°05'0 0.0
2015-Jun-30 01:20N 35°37' E 140°05'0 0.0
2015-Jun-30 00:26N 35°37' E 140°05'0 0.0
2015-Jun-29 23:32N 35°37' E 140°05'0 0.0
2015-Jun-29 22:32N 35°37' E 140°05'0 0.0
2015-Jun-29 21:32N 35°37' E 140°05'0 0.0
2015-Jun-29 20:32N 35°37' E 140°05'0 0.0
2015-Jun-29 19:32N 35°37' E 140°05'0 0.0
2015-Jun-29 18:19N 35°37' E 140°05'0 0.0
2015-Jun-29 16:31N 35°37' E 140°05'0 0.0
2015-Jun-29 15:31N 35°37' E 140°05'0 0.0
2015-Jun-29 14:31N 35°37' E 140°05'0 0.0
2015-Jun-29 13:31N 35°37' E 140°05'0 0.0
2015-Jun-29 12:13N 35°37' E 140°05'0 0.0
2015-Jun-29 11:31N 35°37' E 140°05'2 1.6
2015-Jun-29 10:33N 35°35' E 140°04'1616.5
2015-Jun-29 09:33N 35°26' E 139°48'1211.6
2015-Jun-29 08:33N 35°14' E 139°47'  
2015-Jun-26 10:26N 34°58' E 139°31'1617.8
2015-Jun-26 09:33N 35°10' E 139°44'1212.3
2015-Jun-26 08:34N 35°22' E 139°42'1716.8
2015-Jun-26 07:33N 35°33' E 139°58'7 7.2
2015-Jun-26 06:32N 35°36' E 140°06'0 0.0
2015-Jun-26 05:32N 35°36' E 140°06'0 0.0
2015-Jun-26 04:33N 35°36' E 140°06'1 1.3
2015-Jun-26 03:32N 35°37' E 140°05'0 0.0
2015-Jun-26 02:32N 35°37' E 140°05'0 0.0
2015-Jun-26 01:26N 35°37' E 140°05'0 0.0
2015-Jun-26 00:32N 35°37' E 140°05'0 0.0
2015-Jun-25 22:26N 35°37' E 140°05'0 0.0
2015-Jun-25 21:26N 35°37' E 140°05'0 0.0
2015-Jun-25 20:32N 35°37' E 140°05'0 0.0
2015-Jun-25 19:20N 35°37' E 140°05'0 0.0
2015-Jun-25 18:34N 35°37' E 140°05'1110.8
2015-Jun-25 17:33N 35°30' E 139°54'1414.5
2015-Jun-25 16:34N 35°18' E 139°44'1313.1
2015-Jun-25 15:34N 35°06' E 139°42'  
Track history (hours):
 
Tides and Currents Weather Stations Pressure Air Temp Water Temp Dewpoint Dewpoint Depression Visibility Wind Speed Wind Dir Waves Ship Positions

Toyo Maru

Last reported at 2015-Jul-03 17:23 UTC. Time now 2015-Jul-04 11:44 UTC.
Position N 34°04' E 134°48'.

Length 125 m; draft 6 m.

Type: Cargo ship. MMSI: 431401953.

Date/timePositionNaut miles runAvg speedWind from/ knotsBaromVisibWave heightAir tempDewpointWater temp
2015-Jul-03 17:23N 34°04' E 134°48'  
2015-Jun-30 11:20N 34°58' E 139°30'1417.6
2015-Jun-30 10:33N 35°07' E 139°42'1312.9
2015-Jun-30 09:33N 35°19' E 139°43'1515.2
2015-Jun-30 08:34N 35°31' E 139°55'1010.0
2015-Jun-30 07:31N 35°36' E 140°06'0 0.0
2015-Jun-30 06:31N 35°36' E 140°06'0 0.0
2015-Jun-30 05:31N 35°36' E 140°06'0 0.0
2015-Jun-30 04:33N 35°36' E 140°06'1 1.2
2015-Jun-30 03:32N 35°37' E 140°05'0 0.0
2015-Jun-30 02:20N 35°37' E 140°05'0 0.0
2015-Jun-30 01:20N 35°37' E 140°05'0 0.0
2015-Jun-30 00:26N 35°37' E 140°05'0 0.0
2015-Jun-29 23:32N 35°37' E 140°05'0 0.0
2015-Jun-29 22:32N 35°37' E 140°05'0 0.0
2015-Jun-29 21:32N 35°37' E 140°05'0 0.0
2015-Jun-29 20:32N 35°37' E 140°05'0 0.0
2015-Jun-29 19:32N 35°37' E 140°05'0 0.0
2015-Jun-29 18:19N 35°37' E 140°05'0 0.0
2015-Jun-29 16:31N 35°37' E 140°05'0 0.0
2015-Jun-29 15:31N 35°37' E 140°05'0 0.0
2015-Jun-29 14:31N 35°37' E 140°05'0 0.0
2015-Jun-29 13:31N 35°37' E 140°05'0 0.0
2015-Jun-29 12:13N 35°37' E 140°05'0 0.0
2015-Jun-29 11:31N 35°37' E 140°05'2 1.6
2015-Jun-29 10:33N 35°35' E 140°04'1616.5
2015-Jun-29 09:33N 35°26' E 139°48'1211.6
2015-Jun-29 08:33N 35°14' E 139°47'  
2015-Jun-26 10:26N 34°58' E 139°31'1617.8
2015-Jun-26 09:33N 35°10' E 139°44'1212.3
2015-Jun-26 08:34N 35°22' E 139°42'1716.8
2015-Jun-26 07:33N 35°33' E 139°58'7 7.2
2015-Jun-26 06:32N 35°36' E 140°06'0 0.0
2015-Jun-26 05:32N 35°36' E 140°06'0 0.0
2015-Jun-26 04:33N 35°36' E 140°06'1 1.3
2015-Jun-26 03:32N 35°37' E 140°05'0 0.0
2015-Jun-26 02:32N 35°37' E 140°05'0 0.0
2015-Jun-26 01:26N 35°37' E 140°05'0 0.0
2015-Jun-26 00:32N 35°37' E 140°05'0 0.0
2015-Jun-25 22:26N 35°37' E 140°05'0 0.0
2015-Jun-25 21:26N 35°37' E 140°05'0 0.0
2015-Jun-25 20:32N 35°37' E 140°05'0 0.0
2015-Jun-25 19:20N 35°37' E 140°05'0 0.0
2015-Jun-25 18:34N 35°37' E 140°05'1110.8
2015-Jun-25 17:33N 35°30' E 139°54'1414.5
2015-Jun-25 16:34N 35°18' E 139°44'1313.1
2015-Jun-25 15:34N 35°06' E 139°42'  

Dump ship's entire track history